sensor_id;sensor_type;location;lat;lon;timestamp;P1;durP1;ratioP1;P2;durP2;ratioP2
29902;SDS011;30288;50.514;9.678;2022-12-18T00:01:15;25.73;;;10.65;;
29902;SDS011;30288;50.514;9.678;2022-12-18T00:03:23;29.05;;;11.13;;
29902;SDS011;30288;50.514;9.678;2022-12-18T00:05:30;23.20;;;10.77;;
29902;SDS011;30288;50.514;9.678;2022-12-18T00:07:38;25.13;;;10.15;;
29902;SDS011;30288;50.514;9.678;2022-12-18T00:09:43;29.08;;;11.23;;
29902;SDS011;30288;50.514;9.678;2022-12-18T00:11:49;30.63;;;12.40;;
29902;SDS011;30288;50.514;9.678;2022-12-18T00:13:55;27.33;;;11.57;;
29902;SDS011;30288;50.514;9.678;2022-12-18T00:16:02;31.38;;;10.95;;
29902;SDS011;30288;50.514;9.678;2022-12-18T00:18:09;23.70;;;11.25;;
29902;SDS011;30288;50.514;9.678;2022-12-18T00:20:20;26.13;;;12.20;;
29902;SDS011;30288;50.514;9.678;2022-12-18T00:22:27;27.35;;;10.98;;
29902;SDS011;30288;50.514;9.678;2022-12-18T00:24:35;27.40;;;11.95;;
29902;SDS011;30288;50.514;9.678;2022-12-18T00:26:40;29.85;;;11.13;;
29902;SDS011;30288;50.514;9.678;2022-12-18T00:28:45;27.98;;;11.43;;
29902;SDS011;30288;50.514;9.678;2022-12-18T00:30:50;30.23;;;12.45;;
29902;SDS011;30288;50.514;9.678;2022-12-18T00:33:03;27.27;;;11.23;;
29902;SDS011;30288;50.514;9.678;2022-12-18T00:35:08;33.70;;;11.32;;
29902;SDS011;30288;50.514;9.678;2022-12-18T00:37:14;24.98;;;10.82;;
29902;SDS011;30288;50.514;9.678;2022-12-18T00:39:24;29.77;;;12.68;;
29902;SDS011;30288;50.514;9.678;2022-12-18T00:41:32;27.73;;;11.88;;
29902;SDS011;30288;50.514;9.678;2022-12-18T00:43:50;25.90;;;11.13;;
29902;SDS011;30288;50.514;9.678;2022-12-18T00:45:55;27.55;;;11.32;;
29902;SDS011;30288;50.514;9.678;2022-12-18T00:48:01;27.98;;;11.32;;
29902;SDS011;30288;50.514;9.678;2022-12-18T00:50:07;21.77;;;10.95;;
29902;SDS011;30288;50.514;9.678;2022-12-18T00:52:15;27.45;;;12.25;;
29902;SDS011;30288;50.514;9.678;2022-12-18T00:54:20;27.58;;;12.00;;
29902;SDS011;30288;50.514;9.678;2022-12-18T00:56:25;28.45;;;11.45;;
29902;SDS011;30288;50.514;9.678;2022-12-18T00:58:33;31.25;;;11.75;;
29902;SDS011;30288;50.514;9.678;2022-12-18T01:00:38;27.20;;;11.13;;
29902;SDS011;30288;50.514;9.678;2022-12-18T01:02:45;26.92;;;11.95;;
29902;SDS011;30288;50.514;9.678;2022-12-18T01:04:51;27.60;;;10.07;;
29902;SDS011;30288;50.514;9.678;2022-12-18T01:06:56;27.00;;;11.60;;
29902;SDS011;30288;50.514;9.678;2022-12-18T01:09:01;30.30;;;12.43;;
29902;SDS011;30288;50.514;9.678;2022-12-18T01:11:11;28.85;;;11.55;;
29902;SDS011;30288;50.514;9.678;2022-12-18T01:13:19;27.20;;;11.15;;
29902;SDS011;30288;50.514;9.678;2022-12-18T01:15:27;28.52;;;12.85;;
29902;SDS011;30288;50.514;9.678;2022-12-18T01:17:32;24.10;;;10.45;;
29902;SDS011;30288;50.514;9.678;2022-12-18T01:19:38;30.13;;;11.57;;
29902;SDS011;30288;50.514;9.678;2022-12-18T01:21:44;24.73;;;10.32;;
29902;SDS011;30288;50.514;9.678;2022-12-18T01:23:50;30.50;;;12.45;;
29902;SDS011;30288;50.514;9.678;2022-12-18T01:25:57;27.10;;;10.75;;
29902;SDS011;30288;50.514;9.678;2022-12-18T01:28:09;25.90;;;11.07;;
29902;SDS011;30288;50.514;9.678;2022-12-18T01:30:14;26.90;;;11.18;;
29902;SDS011;30288;50.514;9.678;2022-12-18T01:32:22;25.48;;;10.70;;
29902;SDS011;30288;50.514;9.678;2022-12-18T01:34:27;28.67;;;11.50;;
29902;SDS011;30288;50.514;9.678;2022-12-18T01:36:33;28.10;;;11.45;;
29902;SDS011;30288;50.514;9.678;2022-12-18T01:38:40;24.83;;;10.10;;
29902;SDS011;30288;50.514;9.678;2022-12-18T01:40:46;25.17;;;10.27;;
29902;SDS011;30288;50.514;9.678;2022-12-18T01:42:51;23.20;;;9.77;;
29902;SDS011;30288;50.514;9.678;2022-12-18T01:45:02;19.08;;;9.50;;
29902;SDS011;30288;50.514;9.678;2022-12-18T01:47:31;23.85;;;9.52;;
29902;SDS011;30288;50.514;9.678;2022-12-18T01:49:42;23.95;;;10.68;;
29902;SDS011;30288;50.514;9.678;2022-12-18T01:51:47;22.80;;;9.27;;
29902;SDS011;30288;50.514;9.678;2022-12-18T01:53:52;26.48;;;10.15;;
29902;SDS011;30288;50.514;9.678;2022-12-18T01:55:57;21.98;;;9.20;;
29902;SDS011;30288;50.514;9.678;2022-12-18T01:58:04;23.27;;;9.63;;
29902;SDS011;30288;50.514;9.678;2022-12-18T02:00:12;23.95;;;9.63;;
29902;SDS011;30288;50.514;9.678;2022-12-18T02:02:20;26.38;;;10.38;;
29902;SDS011;30288;50.514;9.678;2022-12-18T02:04:29;30.88;;;10.63;;
29902;SDS011;30288;50.514;9.678;2022-12-18T02:06:36;28.67;;;10.95;;
29902;SDS011;30288;50.514;9.678;2022-12-18T02:08:48;33.85;;;11.10;;
29902;SDS011;30288;50.514;9.678;2022-12-18T02:11:07;25.30;;;9.50;;
29902;SDS011;30288;50.514;9.678;2022-12-18T02:13:20;28.88;;;9.98;;
29902;SDS011;30288;50.514;9.678;2022-12-18T02:15:38;22.15;;;9.98;;
29902;SDS011;30288;50.514;9.678;2022-12-18T02:17:50;27.65;;;10.43;;
29902;SDS011;30288;50.514;9.678;2022-12-18T02:22:20;30.73;;;9.55;;
29902;SDS011;30288;50.514;9.678;2022-12-18T02:24:41;24.95;;;11.05;;
29902;SDS011;30288;50.514;9.678;2022-12-18T02:27:06;20.27;;;9.45;;
29902;SDS011;30288;50.514;9.678;2022-12-18T02:29:15;30.88;;;10.65;;
29902;SDS011;30288;50.514;9.678;2022-12-18T02:31:30;24.17;;;9.98;;
29902;SDS011;30288;50.514;9.678;2022-12-18T02:33:40;24.57;;;10.70;;
29902;SDS011;30288;50.514;9.678;2022-12-18T02:35:48;28.50;;;10.38;;
29902;SDS011;30288;50.514;9.678;2022-12-18T02:37:55;26.30;;;9.52;;
29902;SDS011;30288;50.514;9.678;2022-12-18T02:40:04;25.98;;;9.90;;
29902;SDS011;30288;50.514;9.678;2022-12-18T02:42:15;27.85;;;10.55;;
29902;SDS011;30288;50.514;9.678;2022-12-18T02:44:22;31.48;;;11.43;;
29902;SDS011;30288;50.514;9.678;2022-12-18T02:46:31;28.10;;;10.52;;
29902;SDS011;30288;50.514;9.678;2022-12-18T02:48:46;25.70;;;10.13;;
29902;SDS011;30288;50.514;9.678;2022-12-18T02:50:55;23.25;;;10.13;;
29902;SDS011;30288;50.514;9.678;2022-12-18T02:53:10;25.70;;;10.27;;
29902;SDS011;30288;50.514;9.678;2022-12-18T02:55:24;23.52;;;10.50;;
29902;SDS011;30288;50.514;9.678;2022-12-18T02:57:48;24.50;;;9.88;;
29902;SDS011;30288;50.514;9.678;2022-12-18T03:00:04;23.05;;;10.63;;
29902;SDS011;30288;50.514;9.678;2022-12-18T03:02:17;27.73;;;9.25;;
29902;SDS011;30288;50.514;9.678;2022-12-18T03:04:29;28.05;;;9.60;;
29902;SDS011;30288;50.514;9.678;2022-12-18T03:06:43;22.13;;;10.35;;
29902;SDS011;30288;50.514;9.678;2022-12-18T03:08:54;29.73;;;11.25;;
29902;SDS011;30288;50.514;9.678;2022-12-18T03:11:06;23.25;;;8.77;;
29902;SDS011;30288;50.514;9.678;2022-12-18T03:13:19;24.02;;;10.00;;
29902;SDS011;30288;50.514;9.678;2022-12-18T03:15:35;21.75;;;9.23;;
29902;SDS011;30288;50.514;9.678;2022-12-18T03:17:48;22.02;;;10.18;;
29902;SDS011;30288;50.514;9.678;2022-12-18T03:20:03;25.33;;;9.75;;
29902;SDS011;30288;50.514;9.678;2022-12-18T03:22:13;26.00;;;9.63;;
29902;SDS011;30288;50.514;9.678;2022-12-18T03:24:25;25.88;;;9.30;;
29902;SDS011;30288;50.514;9.678;2022-12-18T03:26:34;20.70;;;8.40;;
29902;SDS011;30288;50.514;9.678;2022-12-18T03:28:49;20.52;;;8.82;;
29902;SDS011;30288;50.514;9.678;2022-12-18T03:31:01;32.47;;;9.77;;
29902;SDS011;30288;50.514;9.678;2022-12-18T03:33:10;17.85;;;8.27;;
29902;SDS011;30288;50.514;9.678;2022-12-18T03:35:24;21.83;;;8.38;;
29902;SDS011;30288;50.514;9.678;2022-12-18T03:37:35;20.17;;;8.88;;
29902;SDS011;30288;50.514;9.678;2022-12-18T03:39:42;20.42;;;7.88;;
29902;SDS011;30288;50.514;9.678;2022-12-18T03:41:50;19.17;;;7.72;;
29902;SDS011;30288;50.514;9.678;2022-12-18T03:44:14;21.73;;;8.65;;
29902;SDS011;30288;50.514;9.678;2022-12-18T03:46:28;19.85;;;7.25;;
29902;SDS011;30288;50.514;9.678;2022-12-18T03:48:46;20.42;;;9.02;;
29902;SDS011;30288;50.514;9.678;2022-12-18T03:50:57;22.80;;;8.93;;
29902;SDS011;30288;50.514;9.678;2022-12-18T03:53:11;19.90;;;8.32;;
29902;SDS011;30288;50.514;9.678;2022-12-18T03:55:27;18.85;;;7.95;;
29902;SDS011;30288;50.514;9.678;2022-12-18T03:59:49;20.27;;;7.50;;
29902;SDS011;30288;50.514;9.678;2022-12-18T04:02:14;20.48;;;7.75;;
29902;SDS011;30288;50.514;9.678;2022-12-18T04:04:21;19.23;;;8.95;;
29902;SDS011;30288;50.514;9.678;2022-12-18T04:06:29;22.27;;;8.52;;
29902;SDS011;30288;50.514;9.678;2022-12-18T04:08:36;19.60;;;8.20;;
29902;SDS011;30288;50.514;9.678;2022-12-18T04:10:44;20.73;;;8.88;;
29902;SDS011;30288;50.514;9.678;2022-12-18T04:12:49;20.58;;;8.93;;
29902;SDS011;30288;50.514;9.678;2022-12-18T04:14:58;23.20;;;9.05;;
29902;SDS011;30288;50.514;9.678;2022-12-18T04:17:03;20.90;;;8.10;;
29902;SDS011;30288;50.514;9.678;2022-12-18T04:19:08;17.15;;;7.22;;
29902;SDS011;30288;50.514;9.678;2022-12-18T04:21:16;19.50;;;8.00;;
29902;SDS011;30288;50.514;9.678;2022-12-18T04:23:23;18.92;;;7.25;;
29902;SDS011;30288;50.514;9.678;2022-12-18T04:25:31;17.90;;;7.40;;
29902;SDS011;30288;50.514;9.678;2022-12-18T04:27:41;16.73;;;7.30;;
29902;SDS011;30288;50.514;9.678;2022-12-18T04:29:46;22.88;;;7.75;;
29902;SDS011;30288;50.514;9.678;2022-12-18T04:31:55;21.45;;;7.43;;
29902;SDS011;30288;50.514;9.678;2022-12-18T04:34:03;19.50;;;7.22;;
29902;SDS011;30288;50.514;9.678;2022-12-18T04:36:14;16.50;;;6.93;;
29902;SDS011;30288;50.514;9.678;2022-12-18T04:38:21;18.00;;;7.55;;
29902;SDS011;30288;50.514;9.678;2022-12-18T04:40:35;19.65;;;8.50;;
29902;SDS011;30288;50.514;9.678;2022-12-18T04:42:49;24.83;;;9.18;;
29902;SDS011;30288;50.514;9.678;2022-12-18T04:44:54;24.42;;;9.50;;
29902;SDS011;30288;50.514;9.678;2022-12-18T04:47:02;26.15;;;9.18;;
29902;SDS011;30288;50.514;9.678;2022-12-18T04:49:09;23.00;;;10.25;;
29902;SDS011;30288;50.514;9.678;2022-12-18T04:51:14;19.13;;;8.93;;
29902;SDS011;30288;50.514;9.678;2022-12-18T04:53:27;20.35;;;10.32;;
29902;SDS011;30288;50.514;9.678;2022-12-18T04:55:33;25.42;;;9.73;;
29902;SDS011;30288;50.514;9.678;2022-12-18T04:57:38;29.00;;;11.52;;
29902;SDS011;30288;50.514;9.678;2022-12-18T04:59:43;20.38;;;9.05;;
29902;SDS011;30288;50.514;9.678;2022-12-18T05:01:48;25.70;;;10.73;;
29902;SDS011;30288;50.514;9.678;2022-12-18T05:03:56;28.75;;;10.43;;
29902;SDS011;30288;50.514;9.678;2022-12-18T05:06:02;25.00;;;10.13;;
29902;SDS011;30288;50.514;9.678;2022-12-18T05:08:08;24.92;;;10.75;;
29902;SDS011;30288;50.514;9.678;2022-12-18T05:10:13;26.75;;;11.10;;
29902;SDS011;30288;50.514;9.678;2022-12-18T05:12:19;24.48;;;9.98;;
29902;SDS011;30288;50.514;9.678;2022-12-18T05:14:29;25.48;;;10.55;;
29902;SDS011;30288;50.514;9.678;2022-12-18T05:16:34;21.55;;;9.13;;
29902;SDS011;30288;50.514;9.678;2022-12-18T05:18:39;26.92;;;10.95;;
29902;SDS011;30288;50.514;9.678;2022-12-18T05:20:47;23.95;;;10.00;;
29902;SDS011;30288;50.514;9.678;2022-12-18T05:22:54;19.17;;;9.20;;
29902;SDS011;30288;50.514;9.678;2022-12-18T05:24:59;18.73;;;7.82;;
29902;SDS011;30288;50.514;9.678;2022-12-18T05:27:04;24.23;;;9.73;;
29902;SDS011;30288;50.514;9.678;2022-12-18T05:29:10;28.40;;;10.45;;
29902;SDS011;30288;50.514;9.678;2022-12-18T05:31:15;21.50;;;8.55;;
29902;SDS011;30288;50.514;9.678;2022-12-18T05:33:21;26.20;;;10.05;;
29902;SDS011;30288;50.514;9.678;2022-12-18T05:35:28;19.65;;;8.25;;
29902;SDS011;30288;50.514;9.678;2022-12-18T05:37:36;22.80;;;9.27;;
29902;SDS011;30288;50.514;9.678;2022-12-18T05:39:44;20.23;;;7.97;;
29902;SDS011;30288;50.514;9.678;2022-12-18T05:41:49;19.60;;;8.27;;
29902;SDS011;30288;50.514;9.678;2022-12-18T05:43:54;19.60;;;8.30;;
29902;SDS011;30288;50.514;9.678;2022-12-18T05:46:02;17.48;;;7.35;;
29902;SDS011;30288;50.514;9.678;2022-12-18T05:48:12;21.63;;;8.52;;
29902;SDS011;30288;50.514;9.678;2022-12-18T05:50:17;18.27;;;8.05;;
29902;SDS011;30288;50.514;9.678;2022-12-18T05:52:22;20.02;;;7.45;;
29902;SDS011;30288;50.514;9.678;2022-12-18T05:54:30;21.60;;;7.18;;
29902;SDS011;30288;50.514;9.678;2022-12-18T05:56:35;20.23;;;7.97;;
29902;SDS011;30288;50.514;9.678;2022-12-18T05:58:47;21.10;;;7.65;;
29902;SDS011;30288;50.514;9.678;2022-12-18T06:00:56;19.88;;;7.88;;
29902;SDS011;30288;50.514;9.678;2022-12-18T06:03:02;21.40;;;8.57;;
29902;SDS011;30288;50.514;9.678;2022-12-18T06:05:07;21.08;;;8.85;;
29902;SDS011;30288;50.514;9.678;2022-12-18T06:07:12;33.80;;;10.43;;
29902;SDS011;30288;50.514;9.678;2022-12-18T06:09:17;22.52;;;8.43;;
29902;SDS011;30288;50.514;9.678;2022-12-18T06:11:25;21.95;;;10.27;;
29902;SDS011;30288;50.514;9.678;2022-12-18T06:13:31;25.58;;;9.35;;
29902;SDS011;30288;50.514;9.678;2022-12-18T06:15:36;22.50;;;9.30;;
29902;SDS011;30288;50.514;9.678;2022-12-18T06:17:42;28.60;;;10.77;;
29902;SDS011;30288;50.514;9.678;2022-12-18T06:19:47;27.70;;;10.55;;
29902;SDS011;30288;50.514;9.678;2022-12-18T06:21:52;21.63;;;9.10;;
29902;SDS011;30288;50.514;9.678;2022-12-18T06:23:59;26.05;;;9.38;;
29902;SDS011;30288;50.514;9.678;2022-12-18T06:26:05;25.42;;;9.32;;
29902;SDS011;30288;50.514;9.678;2022-12-18T06:28:14;22.65;;;9.73;;
29902;SDS011;30288;50.514;9.678;2022-12-18T06:30:19;26.13;;;9.95;;
29902;SDS011;30288;50.514;9.678;2022-12-18T06:32:25;24.98;;;9.52;;
29902;SDS011;30288;50.514;9.678;2022-12-18T06:34:31;26.17;;;7.60;;
29902;SDS011;30288;50.514;9.678;2022-12-18T06:36:36;18.23;;;7.25;;
29902;SDS011;30288;50.514;9.678;2022-12-18T06:38:42;19.73;;;6.63;;
29902;SDS011;30288;50.514;9.678;2022-12-18T06:40:48;16.85;;;6.65;;
29902;SDS011;30288;50.514;9.678;2022-12-18T06:42:53;16.85;;;6.50;;
29902;SDS011;30288;50.514;9.678;2022-12-18T06:45:02;20.92;;;8.68;;
29902;SDS011;30288;50.514;9.678;2022-12-18T06:47:07;24.70;;;7.65;;
29902;SDS011;30288;50.514;9.678;2022-12-18T06:49:13;18.10;;;8.05;;
29902;SDS011;30288;50.514;9.678;2022-12-18T06:51:18;16.20;;;7.25;;
29902;SDS011;30288;50.514;9.678;2022-12-18T06:53:25;17.40;;;7.72;;
29902;SDS011;30288;50.514;9.678;2022-12-18T06:55:31;24.60;;;8.73;;
29902;SDS011;30288;50.514;9.678;2022-12-18T06:57:36;21.45;;;8.43;;
29902;SDS011;30288;50.514;9.678;2022-12-18T06:59:42;19.48;;;9.02;;
29902;SDS011;30288;50.514;9.678;2022-12-18T07:01:49;22.30;;;9.00;;
29902;SDS011;30288;50.514;9.678;2022-12-18T07:03:56;27.75;;;9.50;;
29902;SDS011;30288;50.514;9.678;2022-12-18T07:06:02;24.52;;;8.82;;
29902;SDS011;30288;50.514;9.678;2022-12-18T07:08:07;23.42;;;8.73;;
29902;SDS011;30288;50.514;9.678;2022-12-18T07:10:13;18.58;;;8.05;;
29902;SDS011;30288;50.514;9.678;2022-12-18T07:12:18;23.38;;;8.25;;
29902;SDS011;30288;50.514;9.678;2022-12-18T07:14:23;26.20;;;10.00;;
29902;SDS011;30288;50.514;9.678;2022-12-18T07:16:28;21.15;;;8.68;;
29902;SDS011;30288;50.514;9.678;2022-12-18T07:18:36;23.80;;;8.55;;
29902;SDS011;30288;50.514;9.678;2022-12-18T07:20:41;28.75;;;9.20;;
29902;SDS011;30288;50.514;9.678;2022-12-18T07:22:48;21.83;;;9.23;;
29902;SDS011;30288;50.514;9.678;2022-12-18T07:24:56;23.90;;;9.45;;
29902;SDS011;30288;50.514;9.678;2022-12-18T07:27:01;20.52;;;9.70;;
29902;SDS011;30288;50.514;9.678;2022-12-18T07:29:08;26.10;;;9.50;;
29902;SDS011;30288;50.514;9.678;2022-12-18T07:31:15;22.90;;;10.02;;
29902;SDS011;30288;50.514;9.678;2022-12-18T07:33:23;17.92;;;8.75;;
29902;SDS011;30288;50.514;9.678;2022-12-18T07:35:32;23.00;;;9.90;;
29902;SDS011;30288;50.514;9.678;2022-12-18T07:37:37;24.55;;;9.98;;
29902;SDS011;30288;50.514;9.678;2022-12-18T07:39:43;25.90;;;11.65;;
29902;SDS011;30288;50.514;9.678;2022-12-18T07:41:50;27.85;;;12.07;;
29902;SDS011;30288;50.514;9.678;2022-12-18T07:44:08;24.10;;;11.30;;
29902;SDS011;30288;50.514;9.678;2022-12-18T07:46:14;30.40;;;12.88;;
29902;SDS011;30288;50.514;9.678;2022-12-18T07:48:20;39.03;;;15.35;;
29902;SDS011;30288;50.514;9.678;2022-12-18T07:50:25;37.25;;;15.35;;
29902;SDS011;30288;50.514;9.678;2022-12-18T07:52:33;34.22;;;13.80;;
29902;SDS011;30288;50.514;9.678;2022-12-18T07:54:38;34.97;;;14.15;;
29902;SDS011;30288;50.514;9.678;2022-12-18T07:56:43;38.88;;;13.25;;
29902;SDS011;30288;50.514;9.678;2022-12-18T07:58:49;36.30;;;13.77;;
29902;SDS011;30288;50.514;9.678;2022-12-18T08:00:54;29.60;;;12.23;;
29902;SDS011;30288;50.514;9.678;2022-12-18T08:03:07;30.33;;;13.13;;
29902;SDS011;30288;50.514;9.678;2022-12-18T08:05:14;31.35;;;14.85;;
29902;SDS011;30288;50.514;9.678;2022-12-18T08:07:20;35.08;;;15.75;;
29902;SDS011;30288;50.514;9.678;2022-12-18T08:09:27;33.05;;;14.52;;
29902;SDS011;30288;50.514;9.678;2022-12-18T08:11:32;36.50;;;15.27;;
29902;SDS011;30288;50.514;9.678;2022-12-18T08:13:37;30.50;;;13.27;;
29902;SDS011;30288;50.514;9.678;2022-12-18T08:15:43;30.30;;;14.05;;
29902;SDS011;30288;50.514;9.678;2022-12-18T08:17:47;31.23;;;13.60;;
29902;SDS011;30288;50.514;9.678;2022-12-18T08:19:52;36.30;;;14.90;;
29902;SDS011;30288;50.514;9.678;2022-12-18T08:21:58;34.83;;;13.45;;
29902;SDS011;30288;50.514;9.678;2022-12-18T08:24:03;32.95;;;14.02;;
29902;SDS011;30288;50.514;9.678;2022-12-18T08:26:12;33.97;;;14.60;;
29902;SDS011;30288;50.514;9.678;2022-12-18T08:28:18;32.80;;;13.80;;
29902;SDS011;30288;50.514;9.678;2022-12-18T08:30:23;35.13;;;13.65;;
29902;SDS011;30288;50.514;9.678;2022-12-18T08:32:29;34.97;;;14.60;;
29902;SDS011;30288;50.514;9.678;2022-12-18T08:34:34;38.50;;;15.45;;
29902;SDS011;30288;50.514;9.678;2022-12-18T08:36:40;38.20;;;17.35;;
29902;SDS011;30288;50.514;9.678;2022-12-18T08:38:45;39.60;;;17.70;;
29902;SDS011;30288;50.514;9.678;2022-12-18T08:40:54;33.15;;;16.88;;
29902;SDS011;30288;50.514;9.678;2022-12-18T08:43:07;38.20;;;17.83;;
29902;SDS011;30288;50.514;9.678;2022-12-18T08:45:26;39.10;;;17.10;;
29902;SDS011;30288;50.514;9.678;2022-12-18T08:47:31;38.90;;;17.20;;
29902;SDS011;30288;50.514;9.678;2022-12-18T08:49:36;40.47;;;16.75;;
29902;SDS011;30288;50.514;9.678;2022-12-18T08:51:42;38.40;;;17.75;;
29902;SDS011;30288;50.514;9.678;2022-12-18T08:53:47;44.95;;;17.35;;
29902;SDS011;30288;50.514;9.678;2022-12-18T08:55:52;40.25;;;17.92;;
29902;SDS011;30288;50.514;9.678;2022-12-18T08:57:57;37.25;;;17.25;;
29902;SDS011;30288;50.514;9.678;2022-12-18T09:00:07;44.85;;;18.42;;
29902;SDS011;30288;50.514;9.678;2022-12-18T09:02:15;47.05;;;18.52;;
29902;SDS011;30288;50.514;9.678;2022-12-18T09:04:20;37.20;;;16.50;;
29902;SDS011;30288;50.514;9.678;2022-12-18T09:06:26;35.28;;;16.52;;
29902;SDS011;30288;50.514;9.678;2022-12-18T09:08:34;45.38;;;20.25;;
29902;SDS011;30288;50.514;9.678;2022-12-18T09:10:44;43.47;;;18.63;;
29902;SDS011;30288;50.514;9.678;2022-12-18T09:12:50;39.33;;;17.85;;
29902;SDS011;30288;50.514;9.678;2022-12-18T09:14:57;35.13;;;15.65;;
29902;SDS011;30288;50.514;9.678;2022-12-18T09:17:05;36.17;;;15.93;;
29902;SDS011;30288;50.514;9.678;2022-12-18T09:19:10;42.75;;;15.57;;
29902;SDS011;30288;50.514;9.678;2022-12-18T09:21:17;40.08;;;17.95;;
29902;SDS011;30288;50.514;9.678;2022-12-18T09:23:24;50.22;;;20.45;;
29902;SDS011;30288;50.514;9.678;2022-12-18T09:25:30;42.60;;;18.60;;
29902;SDS011;30288;50.514;9.678;2022-12-18T09:27:37;47.05;;;20.08;;
29902;SDS011;30288;50.514;9.678;2022-12-18T09:29:42;44.63;;;19.92;;
29902;SDS011;30288;50.514;9.678;2022-12-18T09:31:47;42.13;;;19.95;;
29902;SDS011;30288;50.514;9.678;2022-12-18T09:33:56;49.70;;;22.48;;
29902;SDS011;30288;50.514;9.678;2022-12-18T09:36:02;57.67;;;25.85;;
29902;SDS011;30288;50.514;9.678;2022-12-18T09:38:09;50.22;;;22.65;;
29902;SDS011;30288;50.514;9.678;2022-12-18T09:40:19;44.08;;;20.35;;
29902;SDS011;30288;50.514;9.678;2022-12-18T09:42:27;47.08;;;21.77;;
29902;SDS011;30288;50.514;9.678;2022-12-18T09:44:34;42.45;;;20.27;;
29902;SDS011;30288;50.514;9.678;2022-12-18T09:46:47;47.03;;;20.40;;
29902;SDS011;30288;50.514;9.678;2022-12-18T09:49:02;46.00;;;19.63;;
29902;SDS011;30288;50.514;9.678;2022-12-18T09:51:14;41.88;;;18.60;;
29902;SDS011;30288;50.514;9.678;2022-12-18T09:53:24;46.63;;;21.38;;
29902;SDS011;30288;50.514;9.678;2022-12-18T09:55:35;35.38;;;17.15;;
29902;SDS011;30288;50.514;9.678;2022-12-18T09:57:45;48.47;;;21.33;;
29902;SDS011;30288;50.514;9.678;2022-12-18T10:00:02;42.75;;;21.02;;
29902;SDS011;30288;50.514;9.678;2022-12-18T10:02:18;44.10;;;22.13;;
29902;SDS011;30288;50.514;9.678;2022-12-18T10:04:28;43.08;;;20.13;;
29902;SDS011;30288;50.514;9.678;2022-12-18T10:06:37;107.07;;;38.42;;
29902;SDS011;30288;50.514;9.678;2022-12-18T10:08:54;71.82;;;31.35;;
29902;SDS011;30288;50.514;9.678;2022-12-18T10:11:16;65.47;;;29.63;;
29902;SDS011;30288;50.514;9.678;2022-12-18T10:13:34;61.20;;;27.42;;
29902;SDS011;30288;50.514;9.678;2022-12-18T10:15:48;57.55;;;24.40;;
29902;SDS011;30288;50.514;9.678;2022-12-18T10:18:07;54.13;;;22.30;;
29902;SDS011;30288;50.514;9.678;2022-12-18T10:20:32;51.42;;;21.75;;
29902;SDS011;30288;50.514;9.678;2022-12-18T10:22:48;49.92;;;23.25;;
29902;SDS011;30288;50.514;9.678;2022-12-18T10:25:03;45.22;;;22.60;;
29902;SDS011;30288;50.514;9.678;2022-12-18T10:27:21;45.40;;;21.40;;
29902;SDS011;30288;50.514;9.678;2022-12-18T10:29:28;46.47;;;22.17;;
29902;SDS011;30288;50.514;9.678;2022-12-18T10:31:34;55.30;;;24.63;;
29902;SDS011;30288;50.514;9.678;2022-12-18T10:33:39;44.92;;;22.77;;
29902;SDS011;30288;50.514;9.678;2022-12-18T10:35:48;44.22;;;21.83;;
29902;SDS011;30288;50.514;9.678;2022-12-18T10:38:07;47.30;;;21.77;;
29902;SDS011;30288;50.514;9.678;2022-12-18T10:40:26;37.95;;;20.92;;
29902;SDS011;30288;50.514;9.678;2022-12-18T10:42:32;40.03;;;20.73;;
29902;SDS011;30288;50.514;9.678;2022-12-18T10:44:37;43.33;;;21.13;;
29902;SDS011;30288;50.514;9.678;2022-12-18T10:46:42;41.33;;;21.48;;
29902;SDS011;30288;50.514;9.678;2022-12-18T10:48:50;43.72;;;21.33;;
29902;SDS011;30288;50.514;9.678;2022-12-18T10:51:02;42.95;;;20.95;;
29902;SDS011;30288;50.514;9.678;2022-12-18T10:53:15;45.45;;;22.00;;
29902;SDS011;30288;50.514;9.678;2022-12-18T10:55:27;45.08;;;21.85;;
29902;SDS011;30288;50.514;9.678;2022-12-18T10:57:38;44.65;;;21.42;;
29902;SDS011;30288;50.514;9.678;2022-12-18T10:59:51;42.97;;;22.77;;
29902;SDS011;30288;50.514;9.678;2022-12-18T11:01:58;46.05;;;22.08;;
29902;SDS011;30288;50.514;9.678;2022-12-18T11:04:07;46.65;;;22.52;;
29902;SDS011;30288;50.514;9.678;2022-12-18T11:06:17;42.22;;;20.95;;
29902;SDS011;30288;50.514;9.678;2022-12-18T11:08:26;41.47;;;21.02;;
29902;SDS011;30288;50.514;9.678;2022-12-18T11:10:31;44.50;;;22.55;;
29902;SDS011;30288;50.514;9.678;2022-12-18T11:12:38;40.30;;;20.63;;
29902;SDS011;30288;50.514;9.678;2022-12-18T11:14:44;41.42;;;21.73;;
29902;SDS011;30288;50.514;9.678;2022-12-18T11:16:52;43.55;;;20.70;;
29902;SDS011;30288;50.514;9.678;2022-12-18T11:19:21;44.17;;;20.67;;
29902;SDS011;30288;50.514;9.678;2022-12-18T11:21:41;40.25;;;21.17;;
29902;SDS011;30288;50.514;9.678;2022-12-18T11:23:49;40.25;;;21.42;;
29902;SDS011;30288;50.514;9.678;2022-12-18T11:25:57;42.08;;;21.27;;
29902;SDS011;30288;50.514;9.678;2022-12-18T11:28:08;43.95;;;21.75;;
29902;SDS011;30288;50.514;9.678;2022-12-18T11:30:40;49.60;;;20.70;;
29902;SDS011;30288;50.514;9.678;2022-12-18T11:32:45;41.95;;;21.15;;
29902;SDS011;30288;50.514;9.678;2022-12-18T11:34:53;41.33;;;20.73;;
29902;SDS011;30288;50.514;9.678;2022-12-18T11:37:09;41.67;;;21.48;;
29902;SDS011;30288;50.514;9.678;2022-12-18T11:39:20;48.30;;;22.02;;
29902;SDS011;30288;50.514;9.678;2022-12-18T11:41:37;43.13;;;22.20;;
29902;SDS011;30288;50.514;9.678;2022-12-18T11:44:04;41.15;;;21.88;;
29902;SDS011;30288;50.514;9.678;2022-12-18T11:46:13;45.00;;;22.00;;
29902;SDS011;30288;50.514;9.678;2022-12-18T11:48:24;42.20;;;22.95;;
29902;SDS011;30288;50.514;9.678;2022-12-18T11:50:37;47.03;;;23.17;;
29902;SDS011;30288;50.514;9.678;2022-12-18T11:52:53;42.35;;;23.15;;
29902;SDS011;30288;50.514;9.678;2022-12-18T11:55:10;44.85;;;22.55;;
29902;SDS011;30288;50.514;9.678;2022-12-18T11:57:19;44.03;;;23.92;;
29902;SDS011;30288;50.514;9.678;2022-12-18T11:59:39;45.25;;;22.48;;
29902;SDS011;30288;50.514;9.678;2022-12-18T12:01:58;45.10;;;22.95;;
29902;SDS011;30288;50.514;9.678;2022-12-18T12:07:07;49.75;;;24.67;;
29902;SDS011;30288;50.514;9.678;2022-12-18T12:09:32;46.33;;;22.75;;
29902;SDS011;30288;50.514;9.678;2022-12-18T12:11:48;44.92;;;24.05;;
29902;SDS011;30288;50.514;9.678;2022-12-18T12:14:09;49.70;;;22.42;;
29902;SDS011;30288;50.514;9.678;2022-12-18T12:16:29;46.78;;;24.42;;
29902;SDS011;30288;50.514;9.678;2022-12-18T12:18:46;43.90;;;24.65;;
29902;SDS011;30288;50.514;9.678;2022-12-18T12:21:05;46.42;;;24.85;;
29902;SDS011;30288;50.514;9.678;2022-12-18T12:23:19;46.05;;;26.02;;
29902;SDS011;30288;50.514;9.678;2022-12-18T12:25:36;44.22;;;24.38;;
29902;SDS011;30288;50.514;9.678;2022-12-18T12:27:47;46.58;;;25.45;;
29902;SDS011;30288;50.514;9.678;2022-12-18T12:30:05;48.03;;;25.48;;
29902;SDS011;30288;50.514;9.678;2022-12-18T12:32:17;43.63;;;23.77;;
29902;SDS011;30288;50.514;9.678;2022-12-18T12:34:40;48.90;;;24.83;;
29902;SDS011;30288;50.514;9.678;2022-12-18T12:37:10;46.33;;;23.75;;
29902;SDS011;30288;50.514;9.678;2022-12-18T12:39:28;43.70;;;23.52;;
29902;SDS011;30288;50.514;9.678;2022-12-18T12:41:41;45.90;;;24.00;;
29902;SDS011;30288;50.514;9.678;2022-12-18T12:44:01;42.53;;;24.75;;
29902;SDS011;30288;50.514;9.678;2022-12-18T12:46:12;48.25;;;25.92;;
29902;SDS011;30288;50.514;9.678;2022-12-18T12:48:24;48.97;;;25.35;;